< < Back
Terminal Aerodrome Forecast


Current Version              Previous Versions:   1  2  3  4  5  6  7  8  9  

Terminal Aerodrome Forecast

036
FTUS42 KMLB 041742
TAFDAB
TAF
KDAB 041742Z 0418/0518 10003KT P6SM -RA SCT023 BKN035 BKN070
     FM050400 27010KT P6SM BKN030 OVC120
     FM050800 25012KT P6SM SCT040=



Latest METAR

383
SAUS80 KWBC 042100 CCA
MTRDAB
METAR KDAB 042053Z 22007KT 10SM FEW020 FEW055 BKN110 BKN200 23/19 A2968
RMK AO2 RAB1954E08 SLP048 P0000 60000 T02280194 55028


USA.gov is the U.S. government's official web portal to all federal, state and local government web resources and services.